Time;durP1;ratioP1;P1;durP2;ratioP2;P2;SDS_P1;SDS_P2;PMS_P1;PMS_P2;Temp;Humidity;BMP_temperature;BMP_pressure;BME280_temperature;BME280_humidity;BME280_pressure;Samples;Min_cycle;Max_cycle;Signal;HPM_P1;HPM_P2
2022/06/24 00:02:32;;;;;;;11.70;6.80;;;;;;;14.98;62.16;100261.48;130127;1270;106802;-77
2022/06/24 00:05:37;;;;;;;7.90;5.80;;;;;;;14.93;62.02;100256.55;130181;1270;108832;-78
2022/06/24 00:08:54;;;;;;;8.30;6.80;;;;;;;14.86;62.09;100261.95;130217;1270;107764;-78
2022/06/24 00:12:10;;;;;;;7.80;6.50;;;;;;;14.80;62.17;100262.58;130197;1270;108840;-80
2022/06/24 00:15:16;;;;;;;8.50;6.30;;;;;;;14.73;62.20;100263.91;130125;1270;108834;-72
2022/06/24 00:18:21;;;;;;;6.60;5.60;;;;;;;14.70;62.32;100263.50;130201;1270;108768;-74
2022/06/24 00:21:27;;;;;;;8.50;6.00;;;;;;;14.69;62.51;100264.92;130167;1270;108688;-75
2022/06/24 00:24:33;;;;;;;8.10;5.90;;;;;;;14.68;62.31;100265.36;130168;1270;108918;-77
2022/06/24 00:27:39;;;;;;;6.40;5.70;;;;;;;14.65;62.47;100267.09;130201;1270;108902;-77
2022/06/24 00:30:51;;;;;;;8.50;6.20;;;;;;;14.67;62.59;100270.90;130244;1270;108865;-78
2022/06/24 00:33:56;;;;;;;8.40;6.90;;;;;;;14.63;62.61;100274.52;130177;1270;108868;-77
2022/06/24 00:37:25;;;;;;;7.40;6.30;;;;;;;14.60;62.77;100277.98;130158;1270;107771;-75
2022/06/24 00:40:32;;;;;;;8.20;6.30;;;;;;;14.56;62.51;100279.46;130197;1270;109011;-75
2022/06/24 00:43:38;;;;;;;8.90;6.30;;;;;;;14.52;62.60;100277.15;130171;1270;108761;-75
2022/06/24 00:46:47;;;;;;;9.30;6.90;;;;;;;14.49;62.72;100275.23;130188;1270;106835;-75
2022/06/24 00:49:56;;;;;;;8.20;6.20;;;;;;;14.45;62.66;100276.39;130196;1270;108772;-76
2022/06/24 00:53:02;;;;;;;8.90;6.40;;;;;;;14.39;62.79;100276.60;130208;1270;107820;-74
2022/06/24 00:56:07;;;;;;;8.40;6.40;;;;;;;14.33;62.81;100278.12;130209;1269;108670;-74
2022/06/24 00:59:13;;;;;;;6.80;5.70;;;;;;;14.27;63.05;100271.11;130160;1270;108850;-74
2022/06/24 01:02:18;;;;;;;7.10;5.60;;;;;;;14.23;62.94;100272.95;130152;1270;108681;-74
2022/06/24 01:05:23;;;;;;;7.50;5.60;;;;;;;14.22;63.27;100269.19;130206;1270;109622;-75
2022/06/24 01:08:28;;;;;;;7.60;5.80;;;;;;;14.22;63.15;100271.37;130178;1270;108971;-74
2022/06/24 01:11:36;;;;;;;7.70;6.20;;;;;;;14.20;63.08;100267.11;130186;1270;108862;-73
2022/06/24 01:14:41;;;;;;;7.40;6.20;;;;;;;14.20;63.32;100261.95;130217;1270;108707;-73
2022/06/24 01:17:47;;;;;;;7.30;5.70;;;;;;;14.20;63.22;100267.73;130218;1270;108609;-73
2022/06/24 01:20:52;;;;;;;7.30;6.10;;;;;;;14.17;63.16;100261.61;130179;1270;108728;-74
2022/06/24 01:24:07;;;;;;;6.90;5.80;;;;;;;14.12;63.29;100269.61;130163;1270;109176;-74
2022/06/24 01:27:12;;;;;;;9.80;6.50;;;;;;;14.04;63.33;100268.42;130197;1270;108456;-74
2022/06/24 01:30:17;;;;;;;7.10;5.90;;;;;;;13.99;63.47;100271.16;130189;1270;108862;-75
2022/06/24 01:33:22;;;;;;;7.60;5.90;;;;;;;13.95;63.47;100273.02;130165;1270;108980;-75
2022/06/24 01:36:28;;;;;;;7.70;6.40;;;;;;;13.89;63.69;100267.82;130110;1270;108856;-76
2022/06/24 01:39:33;;;;;;;7.70;6.50;;;;;;;13.84;63.78;100268.21;130206;1270;108700;-75
2022/06/24 01:42:39;;;;;;;7.60;5.30;;;;;;;13.80;63.79;100270.50;130197;1270;108632;-77
2022/06/24 01:45:44;;;;;;;6.80;5.50;;;;;;;13.76;63.72;100271.05;130157;1270;108798;-77
2022/06/24 01:48:49;;;;;;;6.00;4.90;;;;;;;13.75;63.79;100265.99;130142;1270;108909;-77
2022/06/24 01:51:58;;;;;;;6.30;5.60;;;;;;;13.74;63.73;100260.36;130180;1270;108777;-74
2022/06/24 01:55:04;;;;;;;6.80;6.00;;;;;;;13.77;63.77;100267.10;130196;1270;108487;-74
2022/06/24 01:58:09;;;;;;;7.40;5.70;;;;;;;13.77;63.83;100264.34;130163;1270;107392;-73
2022/06/24 02:01:14;;;;;;;7.30;5.90;;;;;;;13.74;63.84;100268.20;130174;1270;108857;-74
2022/06/24 02:04:19;;;;;;;6.60;5.90;;;;;;;13.70;63.79;100272.81;130161;1270;108497;-73
2022/06/24 02:07:25;;;;;;;7.70;6.10;;;;;;;13.67;63.91;100275.34;130193;1270;107528;-76
2022/06/24 02:13:56;;;;;;;6.80;5.60;;;;;;;13.62;64.09;100272.77;130201;1270;108748;-76
2022/06/24 02:17:01;;;;;;;7.10;5.50;;;;;;;13.58;64.19;100278.45;130202;1270;107711;-79
2022/06/24 02:20:08;;;;;;;7.00;5.50;;;;;;;13.54;64.16;100278.86;130228;1270;109585;-79
2022/06/24 02:23:13;;;;;;;8.20;5.70;;;;;;;13.51;64.38;100276.86;130242;1270;108857;-73
2022/06/24 02:26:18;;;;;;;5.90;5.30;;;;;;;13.48;64.35;100277.23;130224;1270;108272;-71
2022/06/24 02:29:24;;;;;;;6.70;5.60;;;;;;;13.43;64.29;100280.30;130048;1270;108753;-67
2022/06/24 02:32:29;;;;;;;7.80;5.60;;;;;;;13.25;64.31;100278.84;130096;1270;108696;-69
2022/06/24 02:35:34;;;;;;;7.30;5.80;;;;;;;13.04;64.54;100282.94;130125;1270;108799;-72
2022/06/24 02:38:39;;;;;;;7.40;5.50;;;;;;;12.99;64.90;100280.84;130133;1270;108923;-71
2022/06/24 02:41:44;;;;;;;7.40;5.80;;;;;;;12.96;65.02;100279.11;130134;1270;108701;-69
2022/06/24 02:44:49;;;;;;;8.50;6.00;;;;;;;12.96;65.15;100276.15;130097;1270;108858;-72
2022/06/24 02:47:54;;;;;;;7.20;6.00;;;;;;;12.94;65.05;100279.07;130219;1270;108852;-72
2022/06/24 02:51:01;;;;;;;6.40;5.60;;;;;;;12.86;65.33;100283.67;130238;1270;107650;-72
2022/06/24 02:54:07;;;;;;;7.80;5.90;;;;;;;12.79;65.53;100284.45;130165;1270;108608;-72
2022/06/24 02:57:12;;;;;;;6.10;5.50;;;;;;;12.76;65.66;100284.78;130165;1270;108826;-73
2022/06/24 03:00:18;;;;;;;7.20;5.20;;;;;;;12.73;65.76;100283.31;130190;1270;109048;-73
2022/06/24 03:03:24;;;;;;;6.60;5.90;;;;;;;12.73;65.67;100282.89;130173;1270;108963;-74
2022/06/24 03:06:29;;;;;;;7.60;6.00;;;;;;;12.70;65.81;100284.67;130155;1270;108681;-74
2022/06/24 03:09:34;;;;;;;7.90;5.90;;;;;;;12.70;66.05;100288.42;130089;1270;106946;-73
2022/06/24 03:12:39;;;;;;;7.50;6.10;;;;;;;12.80;66.08;100288.96;130114;1270;108805;-74
2022/06/24 03:15:45;;;;;;;7.60;5.70;;;;;;;12.90;66.05;100279.29;130105;1270;108649;-75
2022/06/24 03:18:50;;;;;;;7.40;6.40;;;;;;;13.03;66.10;100278.32;130111;1270;108868;-73
2022/06/24 03:21:55;;;;;;;6.30;5.50;;;;;;;13.21;66.29;100282.31;130094;1270;107532;-73
2022/06/24 03:25:00;;;;;;;7.80;5.40;;;;;;;13.48;66.14;100280.05;130112;1270;108874;-73
2022/06/24 03:28:07;;;;;;;7.10;5.10;;;;;;;13.81;66.12;100278.58;130129;1270;108670;-73
2022/06/24 03:31:15;;;;;;;5.50;5.00;;;;;;;14.18;66.14;100275.38;130182;1270;108712;-74
2022/06/24 03:34:20;;;;;;;6.50;5.20;;;;;;;14.63;65.88;100275.29;130156;1270;108761;-73
2022/06/24 03:37:25;;;;;;;5.90;5.10;;;;;;;15.01;65.69;100276.70;130082;1270;108752;-75
2022/06/24 03:40:30;;;;;;;5.90;5.10;;;;;;;15.33;65.26;100273.36;130158;1270;108018;-72
2022/06/24 03:43:36;;;;;;;6.30;5.20;;;;;;;15.59;65.29;100278.92;130144;1270;108676;-75
2022/06/24 03:46:41;;;;;;;5.50;4.70;;;;;;;15.83;65.19;100280.38;130098;1270;107627;-74
2022/06/24 03:49:46;;;;;;;6.30;4.70;;;;;;;16.17;65.12;100278.56;130145;1270;108625;-72
2022/06/24 03:52:51;;;;;;;5.40;4.90;;;;;;;16.52;64.84;100278.04;130105;1270;108956;-73
2022/06/24 03:55:56;;;;;;;6.10;5.40;;;;;;;16.79;64.72;100272.55;130116;1270;109132;-74
2022/06/24 03:59:01;;;;;;;5.30;4.50;;;;;;;17.03;64.66;100276.84;130117;1270;108667;-75
2022/06/24 04:02:07;;;;;;;5.80;5.00;;;;;;;17.27;64.58;100274.02;130154;1270;108849;-73
2022/06/24 04:05:12;;;;;;;5.90;5.30;;;;;;;17.47;64.56;100273.92;130036;1270;108754;-74
2022/06/24 04:08:17;;;;;;;5.20;4.60;;;;;;;17.69;64.57;100278.46;130138;1270;108865;-73
2022/06/24 04:11:23;;;;;;;5.90;5.20;;;;;;;17.90;64.49;100276.52;130107;1270;108839;-74
2022/06/24 04:17:51;;;;;;;5.60;5.10;;;;;;;18.35;64.49;100284.67;130172;1270;108645;-73
2022/06/24 04:20:57;;;;;;;6.80;5.30;;;;;;;18.57;64.53;100279.23;130100;1270;108674;-74
2022/06/24 04:24:02;;;;;;;5.60;5.10;;;;;;;18.76;64.54;100280.27;130078;1270;108815;-73
2022/06/24 04:27:08;;;;;;;6.70;4.50;;;;;;;18.94;64.58;100279.72;130060;1270;108992;-73
2022/06/24 04:30:14;;;;;;;6.30;4.70;;;;;;;19.11;64.60;100283.18;130095;1270;108701;-76
2022/06/24 04:33:19;;;;;;;8.30;6.50;;;;;;;19.28;64.63;100282.05;130119;1270;108835;-72
2022/06/24 04:36:24;;;;;;;8.10;4.90;;;;;;;19.52;64.63;100284.05;130143;1270;108909;-74
2022/06/24 04:39:29;;;;;;;7.60;4.40;;;;;;;19.76;64.73;100281.94;130149;1270;108683;-75
2022/06/24 04:42:34;;;;;;;6.20;4.70;;;;;;;20.00;64.52;100288.98;130186;1270;108930;-74
2022/06/24 04:45:40;;;;;;;5.30;4.50;;;;;;;20.18;64.22;100280.58;130090;1270;108716;-72
2022/06/24 04:48:45;;;;;;;6.00;4.60;;;;;;;20.33;64.24;100278.74;130120;1270;108266;-72
2022/06/24 04:51:50;;;;;;;5.80;4.60;;;;;;;20.50;64.17;100282.61;130088;1270;108869;-71
2022/06/24 04:54:56;;;;;;;5.20;4.70;;;;;;;20.65;64.05;100287.13;130136;1268;108296;-72
2022/06/24 04:58:01;;;;;;;4.80;4.20;;;;;;;20.78;63.67;100287.89;130288;1270;107904;-71
2022/06/24 05:01:06;;;;;;;5.70;4.30;;;;;;;20.90;63.44;100284.55;130130;1270;108710;-71
2022/06/24 05:04:13;;;;;;;5.40;4.40;;;;;;;21.02;63.32;100286.36;130193;1270;108944;-73
2022/06/24 05:07:18;;;;;;;4.30;3.60;;;;;;;21.14;63.15;100287.02;130129;1270;107394;-73
2022/06/24 05:10:23;;;;;;;4.80;3.90;;;;;;;21.27;63.14;100284.49;130187;1270;108838;-73
2022/06/24 05:13:28;;;;;;;4.30;3.90;;;;;;;21.38;62.87;100280.45;130110;1270;108872;-72
2022/06/24 05:16:33;;;;;;;4.20;3.70;;;;;;;21.51;62.49;100280.19;130088;1270;108914;-72
2022/06/24 05:19:39;;;;;;;4.20;3.70;;;;;;;21.64;62.20;100282.55;130144;1270;108903;-73
2022/06/24 05:22:44;;;;;;;5.80;3.80;;;;;;;21.73;61.82;100286.97;130140;1270;108736;-72
2022/06/24 05:25:49;;;;;;;4.30;3.90;;;;;;;21.81;61.79;100285.04;130081;1270;108394;-73
2022/06/24 05:28:54;;;;;;;4.40;3.60;;;;;;;21.94;61.25;100286.07;130089;1270;108662;-73
2022/06/24 05:31:59;;;;;;;3.90;3.40;;;;;;;22.04;61.37;100282.60;130077;1270;108987;-72
2022/06/24 05:35:06;;;;;;;3.90;3.50;;;;;;;22.14;61.25;100287.45;130201;1270;108878;-73
2022/06/24 05:38:11;;;;;;;5.40;3.30;;;;;;;22.24;60.90;100291.77;130207;1270;108219;-73
2022/06/24 05:41:16;;;;;;;3.80;3.40;;;;;;;22.32;60.83;100287.66;130107;1270;108762;-74
2022/06/24 05:44:21;;;;;;;3.50;3.20;;;;;;;22.40;60.62;100281.88;130113;1270;108898;-73
2022/06/24 05:47:27;;;;;;;3.90;3.10;;;;;;;22.47;60.26;100282.90;130106;1270;108685;-73
2022/06/24 05:50:32;;;;;;;5.00;3.40;;;;;;;22.52;59.94;100286.51;130124;1270;107006;-75
2022/06/24 05:56:57;;;;;;;3.50;3.10;;;;;;;22.61;59.59;100283.81;129872;1270;108610;-74
2022/06/24 06:00:03;;;;;;;3.50;3.20;;;;;;;22.66;59.51;100282.63;130203;1270;108719;-74
2022/06/24 06:03:09;;;;;;;4.30;3.30;;;;;;;22.69;59.11;100283.92;130144;1270;108707;-73
2022/06/24 06:06:14;;;;;;;3.30;3.00;;;;;;;22.72;59.06;100279.80;130172;1270;109147;-73
2022/06/24 06:09:19;;;;;;;3.20;2.90;;;;;;;22.77;59.01;100280.45;130142;1270;108805;-74
2022/06/24 06:12:24;;;;;;;3.90;3.10;;;;;;;22.80;58.89;100281.41;130222;1270;108832;-74
2022/06/24 06:15:31;;;;;;;4.10;3.00;;;;;;;22.82;58.66;100280.48;130170;1270;108640;-75
2022/06/24 06:18:36;;;;;;;2.90;2.40;;;;;;;22.81;58.08;100280.36;130113;1270;108829;-74
2022/06/24 06:21:42;;;;;;;3.10;2.80;;;;;;;22.81;57.51;100280.72;130184;1270;108655;-77
2022/06/24 06:24:47;;;;;;;2.70;2.50;;;;;;;22.80;57.83;100279.02;130130;1270;107708;-75
2022/06/24 06:27:52;;;;;;;4.10;2.80;;;;;;;22.81;57.72;100278.06;130106;1270;108830;-77
2022/06/24 06:30:57;;;;;;;4.40;3.30;;;;;;;22.81;57.90;100280.15;130136;1270;108928;-75
2022/06/24 06:34:02;;;;;;;7.00;3.50;;;;;;;22.82;57.93;100279.33;130055;1270;108271;-74
2022/06/24 06:37:07;;;;;;;3.90;3.00;;;;;;;22.81;57.57;100277.75;130103;1270;108746;-75
2022/06/24 06:40:13;;;;;;;5.80;3.30;;;;;;;22.82;57.61;100273.02;130158;1270;108729;-79
2022/06/24 06:43:18;;;;;;;4.40;3.10;;;;;;;22.82;57.44;100275.27;130075;1270;108851;-75
2022/06/24 06:46:23;;;;;;;8.70;3.60;;;;;;;22.83;57.25;100274.59;130014;1270;108002;-77
2022/06/24 06:49:29;;;;;;;3.80;3.00;;;;;;;22.85;57.28;100276.59;130140;1270;108795;-74
2022/06/24 06:52:34;;;;;;;3.80;2.80;;;;;;;22.89;57.18;100272.06;130117;1270;108815;-74
2022/06/24 06:55:39;;;;;;;3.30;2.80;;;;;;;22.92;56.89;100269.58;130143;1270;108811;-79
2022/06/24 06:58:44;;;;;;;3.50;3.20;;;;;;;22.94;56.82;100268.75;130158;1270;108966;-74
2022/06/24 07:01:49;;;;;;;4.30;3.30;;;;;;;22.95;56.22;100264.26;130147;1270;108808;-76
2022/06/24 07:04:54;;;;;;;2.60;2.40;;;;;;;22.94;56.16;100261.96;130164;1270;108655;-76
2022/06/24 07:07:59;;;;;;;4.90;3.50;;;;;;;22.96;55.51;100261.02;130218;1269;108373;-76
2022/06/24 07:11:06;;;;;;;4.70;3.20;;;;;;;22.98;55.55;100261.34;130140;1270;107135;-75
2022/06/24 07:14:11;;;;;;;3.90;2.50;;;;;;;23.01;55.31;100257.13;130187;1270;107651;-73
2022/06/24 07:17:17;;;;;;;3.50;2.70;;;;;;;23.04;54.34;100258.56;130199;1270;108765;-74
2022/06/24 07:20:23;;;;;;;3.60;2.60;;;;;;;23.07;53.13;100256.26;130168;1270;108752;-73
2022/06/24 07:23:28;;;;;;;2.50;2.20;;;;;;;23.11;53.89;100255.21;130206;1270;107763;-76
2022/06/24 07:26:33;;;;;;;2.20;2.00;;;;;;;23.19;53.59;100255.67;130193;1269;108996;-76
2022/06/24 07:29:39;;;;;;;4.10;2.30;;;;;;;23.25;52.50;100256.02;130215;1269;108933;-74
2022/06/24 07:32:46;;;;;;;3.60;2.10;;;;;;;23.30;53.83;100256.85;130220;1270;108683;-79
2022/06/24 07:35:51;;;;;;;3.50;2.50;;;;;;;23.36;53.57;100250.52;130173;1270;108804;-76
2022/06/24 07:38:56;;;;;;;4.20;2.60;;;;;;;23.40;53.67;100253.91;130095;1269;108943;-77
2022/06/24 07:42:01;;;;;;;4.00;2.70;;;;;;;23.42;53.52;100252.66;130164;1270;108827;-76
2022/06/24 07:45:09;;;;;;;5.90;2.20;;;;;;;23.46;53.51;100253.39;130197;1270;108875;-76
2022/06/24 07:48:14;;;;;;;5.80;2.10;;;;;;;23.51;53.12;100249.70;130199;1270;107099;-72
2022/06/24 07:51:19;;;;;;;3.80;2.10;;;;;;;23.56;53.03;100246.70;130199;1270;107509;-73
2022/06/24 07:54:24;;;;;;;5.40;3.50;;;;;;;23.60;52.73;100242.81;130132;1270;108704;-73
2022/06/24 07:57:30;;;;;;;8.10;5.30;;;;;;;23.61;52.52;100241.68;130125;1270;108860;-74
2022/06/24 08:00:35;;;;;;;4.40;2.80;;;;;;;23.60;51.94;100238.34;130111;1270;108846;-75
2022/06/24 08:03:41;;;;;;;3.00;1.90;;;;;;;23.61;51.55;100234.05;130153;1270;109021;-74
2022/06/24 08:06:49;;;;;;;3.90;2.50;;;;;;;23.66;51.63;100230.83;130198;1269;108855;-73
2022/06/24 08:09:55;;;;;;;3.00;2.40;;;;;;;23.69;51.52;100230.27;130132;1270;108494;-77
2022/06/24 08:13:00;;;;;;;2.30;2.00;;;;;;;23.71;50.82;100228.71;130113;1270;108832;-81
2022/06/24 08:16:05;;;;;;;1.80;1.60;;;;;;;23.74;50.28;100228.24;130175;1270;108637;-79
2022/06/24 08:19:11;;;;;;;3.00;1.80;;;;;;;23.85;49.37;100230.02;130164;1269;108684;-79
2022/06/24 08:22:16;;;;;;;1.90;1.70;;;;;;;23.98;49.08;100230.75;130142;1269;108864;-77
2022/06/24 08:25:21;;;;;;;2.30;1.80;;;;;;;24.07;48.92;100228.75;130151;1269;108742;-74
2022/06/24 08:28:26;;;;;;;1.80;1.50;;;;;;;24.18;48.82;100220.89;130148;1270;108772;-73
2022/06/24 08:31:32;;;;;;;1.70;1.60;;;;;;;24.27;48.35;100218.27;130147;1270;108803;-73
2022/06/24 08:34:37;;;;;;;5.40;1.80;;;;;;;24.39;48.18;100214.84;130123;1270;108791;-74
2022/06/24 08:37:42;;;;;;;6.10;1.60;;;;;;;24.46;48.13;100209.23;130150;1269;108769;-74
2022/06/24 08:40:49;;;;;;;2.90;1.80;;;;;;;24.55;47.80;100210.02;130202;1270;108863;-74
2022/06/24 08:43:56;;;;;;;2.50;2.00;;;;;;;24.62;47.75;100208.06;130211;1270;108910;-75
2022/06/24 08:47:01;;;;;;;2.20;2.00;;;;;;;24.68;47.30;100200.86;130198;1270;107823;-75
2022/06/24 08:50:09;;;;;;;3.50;1.70;;;;;;;24.73;46.87;100198.86;130203;1270;108754;-75
2022/06/24 08:53:18;;;;;;;2.20;1.80;;;;;;;24.79;46.31;100199.92;130200;1270;108684;-75
2022/06/24 08:56:23;;;;;;;2.90;1.70;;;;;;;24.81;45.74;100194.84;130217;1269;108715;-74
2022/06/24 08:59:30;;;;;;;2.30;2.10;;;;;;;24.84;45.80;100191.05;130220;1270;108877;-75
2022/06/24 09:02:35;;;;;;;2.50;2.10;;;;;;;24.86;46.06;100186.93;130220;1269;108728;-74
2022/06/24 09:05:41;;;;;;;3.20;1.90;;;;;;;24.87;46.06;100185.92;130130;1270;108647;-74
2022/06/24 09:08:49;;;;;;;3.30;2.10;;;;;;;24.95;46.30;100182.05;130146;1270;108835;-75
2022/06/24 09:11:57;;;;;;;3.30;1.90;;;;;;;25.02;45.82;100184.08;130177;1270;108581;-74
2022/06/24 09:15:06;;;;;;;3.10;2.00;;;;;;;25.07;46.13;100181.30;130124;1270;108560;-74
2022/06/24 09:18:22;;;;;;;2.60;1.90;;;;;;;25.14;46.22;100173.15;130204;1270;108617;-75
2022/06/24 09:21:29;;;;;;;2.10;1.90;;;;;;;25.18;45.16;100178.02;130169;1270;108742;-75
2022/06/24 09:24:47;;;;;;;3.50;2.40;;;;;;;25.14;45.07;100168.85;130170;1269;108931;-75
2022/06/24 09:27:52;;;;;;;2.20;2.00;;;;;;;25.15;45.56;100166.79;130207;1270;108848;-75
2022/06/24 09:31:03;;;;;;;2.40;2.00;;;;;;;25.21;45.84;100166.39;130155;1270;108799;-75
2022/06/24 09:34:13;;;;;;;2.50;2.00;;;;;;;25.25;45.25;100165.30;130214;1269;108940;-74
2022/06/24 09:37:35;;;;;;;2.70;1.90;;;;;;;25.26;45.31;100160.85;130104;1269;108870;-75
2022/06/24 09:40:42;;;;;;;2.10;1.90;;;;;;;25.27;45.33;100160.53;130217;1270;108866;-75
2022/06/24 09:43:47;;;;;;;2.30;1.90;;;;;;;25.33;45.01;100161.09;130198;1270;108716;-75
2022/06/24 09:47:04;;;;;;;2.00;1.80;;;;;;;25.36;45.30;100154.58;130119;1270;108705;-74
2022/06/24 09:50:11;;;;;;;3.90;1.90;;;;;;;25.43;44.74;100157.58;130170;1270;109673;-75
2022/06/24 09:53:17;;;;;;;4.20;2.00;;;;;;;25.49;45.10;100155.84;129933;1270;374290;-75
2022/06/24 09:56:24;;;;;;;2.50;1.80;;;;;;;25.59;44.79;100157.49;130182;1270;108674;-76
2022/06/24 10:02:53;;;;;;;2.00;1.80;;;;;;;25.67;44.21;100156.59;130205;1270;108824;-76
2022/06/24 10:06:03;;;;;;;4.00;1.80;;;;;;;25.70;44.75;100154.39;130138;1268;108788;-75
2022/06/24 10:09:09;;;;;;;4.40;1.90;;;;;;;25.78;44.22;100143.81;130194;1270;107632;-75
2022/06/24 10:12:16;;;;;;;2.90;2.20;;;;;;;25.77;44.15;100144.96;130200;1268;108245;-75
2022/06/24 10:15:23;;;;;;;2.30;2.10;;;;;;;25.79;44.23;100136.45;130174;1270;108887;-75
2022/06/24 10:18:32;;;;;;;1.80;1.70;;;;;;;25.87;43.86;100143.80;130222;1269;108739;-76
2022/06/24 10:21:38;;;;;;;2.90;1.90;;;;;;;25.90;43.09;100144.05;130217;1270;108818;-75
2022/06/24 10:24:44;;;;;;;2.00;1.70;;;;;;;25.92;43.28;100135.52;130240;1270;108722;-75
2022/06/24 10:28:08;;;;;;;2.50;1.60;;;;;;;25.95;42.79;100137.91;130181;1270;108502;-75
2022/06/24 10:31:13;;;;;;;2.20;1.70;;;;;;;25.97;42.80;100128.52;130188;1269;108513;-75
2022/06/24 10:34:33;;;;;;;2.70;1.80;;;;;;;26.01;42.87;100126.21;130187;1270;108699;-75
2022/06/24 10:37:54;;;;;;;1.70;1.60;;;;;;;26.04;42.85;100124.55;130206;1269;108696;-74
2022/06/24 10:41:00;;;;;;;2.80;1.80;;;;;;;26.06;42.53;100119.98;130174;1270;108851;-75
2022/06/24 10:44:23;;;;;;;2.60;1.70;;;;;;;26.09;42.29;100113.42;130181;1270;107708;-76
2022/06/24 10:47:40;;;;;;;1.90;1.60;;;;;;;26.13;42.72;100109.43;130207;1270;108848;-76
2022/06/24 10:51:14;;;;;;;2.10;1.50;;;;;;;26.17;41.74;100113.67;130220;1269;108805;-75
2022/06/24 10:54:21;;;;;;;1.70;1.60;;;;;;;26.19;42.11;100112.47;130190;1270;108850;-76
2022/06/24 10:57:26;;;;;;;2.10;1.70;;;;;;;26.26;42.16;100113.58;130196;1270;109835;-76
2022/06/24 11:00:48;;;;;;;2.70;1.70;;;;;;;26.30;41.61;100106.01;130179;1270;108876;-75
2022/06/24 11:03:55;;;;;;;2.40;1.50;;;;;;;26.31;41.58;100098.90;130176;1269;109534;-75
2022/06/24 11:07:11;;;;;;;1.90;1.60;;;;;;;26.29;41.29;100097.30;130195;1270;108780;-75
2022/06/24 11:10:21;;;;;;;2.00;1.60;;;;;;;26.36;41.37;100095.23;130210;1270;108750;-76
2022/06/24 11:13:26;;;;;;;2.90;1.60;;;;;;;26.45;41.93;100091.73;130194;1270;109023;-75
2022/06/24 11:16:32;;;;;;;3.20;2.10;;;;;;;26.51;41.73;100084.39;130168;1270;108962;-74
2022/06/24 11:19:41;;;;;;;1.90;1.70;;;;;;;26.55;41.71;100084.15;130171;1270;108693;-76
2022/06/24 11:22:48;;;;;;;2.10;1.90;;;;;;;26.53;41.28;100086.98;130199;1270;108712;-76
2022/06/24 11:25:56;;;;;;;2.00;1.80;;;;;;;26.53;41.61;100082.43;130204;1269;108948;-75
2022/06/24 11:29:01;;;;;;;3.00;1.70;;;;;;;26.54;40.87;100084.90;130212;1270;108077;-76
2022/06/24 11:32:08;;;;;;;1.50;1.40;;;;;;;26.55;41.15;100083.55;130200;1270;108922;-75
2022/06/24 11:35:19;;;;;;;2.90;1.70;;;;;;;26.61;41.08;100075.09;130203;1270;107248;-76
2022/06/24 11:38:24;;;;;;;3.30;1.70;;;;;;;26.68;41.34;100067.67;130201;1270;108816;-74
2022/06/24 11:41:31;;;;;;;1.60;1.50;;;;;;;26.74;41.08;100065.91;130204;1269;108953;-76
2022/06/24 11:44:39;;;;;;;2.20;1.70;;;;;;;26.81;41.14;100067.31;130180;1271;108709;-76
2022/06/24 11:47:49;;;;;;;2.70;1.90;;;;;;;26.85;40.88;100069.69;130184;1270;107452;-76
2022/06/24 11:50:54;;;;;;;2.10;1.90;;;;;;;26.83;40.48;100065.03;130215;1269;108947;-76
2022/06/24 11:54:01;;;;;;;2.00;1.70;;;;;;;26.81;40.26;100065.01;130175;1271;108725;-75
2022/06/24 11:57:10;;;;;;;2.20;1.70;;;;;;;26.79;40.14;100057.38;130211;1270;108904;-76
2022/06/24 12:00:17;;;;;;;1.60;1.50;;;;;;;26.79;40.42;100056.30;130175;1270;108702;-75
2022/06/24 12:03:24;;;;;;;2.80;1.50;;;;;;;26.82;39.97;100056.91;130195;1270;108886;-75
2022/06/24 12:06:30;;;;;;;2.40;1.40;;;;;;;26.87;39.79;100056.02;130209;1270;108707;-75
2022/06/24 12:09:37;;;;;;;2.70;1.60;;;;;;;26.92;40.31;100057.67;130212;1270;108797;-74
2022/06/24 12:12:59;;;;;;;1.80;1.40;;;;;;;26.99;40.24;100052.99;130211;1270;108695;-76
2022/06/24 12:16:06;;;;;;;1.90;1.60;;;;;;;27.05;39.59;100048.80;130186;1270;107319;-76
2022/06/24 12:19:11;;;;;;;1.70;1.50;;;;;;;27.07;39.34;100048.81;130195;1270;108636;-76
2022/06/24 12:22:17;;;;;;;3.30;1.40;;;;;;;27.09;39.79;100049.36;130194;1269;108847;-75
2022/06/24 12:25:23;;;;;;;1.90;1.70;;;;;;;27.16;39.60;100045.06;130190;1270;106865;-74
2022/06/24 12:28:29;;;;;;;2.40;1.50;;;;;;;27.20;39.56;100038.55;130221;1271;109521;-75
2022/06/24 12:31:35;;;;;;;1.80;1.40;;;;;;;27.25;39.03;100031.48;130180;1270;108876;-75
2022/06/24 12:34:41;;;;;;;2.00;1.50;;;;;;;27.31;39.21;100023.29;130215;1270;108961;-76
2022/06/24 12:37:54;;;;;;;2.40;1.10;;;;;;;27.30;38.58;100027.18;130176;1270;109801;-76
2022/06/24 12:41:09;;;;;;;1.90;1.30;;;;;;;27.22;38.96;100020.76;130224;1270;108846;-76
2022/06/24 12:44:15;;;;;;;1.70;1.30;;;;;;;27.25;38.87;100019.03;130188;1271;108874;-75
2022/06/24 12:50:44;;;;;;;1.80;1.40;;;;;;;27.26;37.94;100005.19;130210;1270;108622;-76
2022/06/24 12:53:50;;;;;;;2.40;1.30;;;;;;;27.22;37.69;100003.51;130216;1271;108771;-75
2022/06/24 12:56:55;;;;;;;1.60;1.30;;;;;;;27.30;38.02;100004.45;130229;1271;108638;-76
2022/06/24 13:00:01;;;;;;;2.20;1.70;;;;;;;27.36;38.05;99998.38;130218;1270;108632;-75
2022/06/24 13:03:06;;;;;;;2.60;1.50;;;;;;;27.37;38.11;100004.08;130254;1269;108794;-76
2022/06/24 13:06:11;;;;;;;1.60;1.50;;;;;;;27.40;38.50;99999.73;130204;1271;108659;-77
2022/06/24 13:09:16;;;;;;;2.10;1.60;;;;;;;27.48;38.29;99996.48;130208;1270;106963;-75
2022/06/24 13:12:21;;;;;;;3.40;1.70;;;;;;;27.56;38.26;99994.90;130218;1271;108659;-76
2022/06/24 13:15:27;;;;;;;2.80;1.40;;;;;;;27.54;37.67;99998.84;130170;1271;108475;-76
2022/06/24 13:18:32;;;;;;;3.10;1.50;;;;;;;27.42;38.04;99991.96;130204;1271;107792;-76
2022/06/24 13:21:37;;;;;;;2.10;1.70;;;;;;;27.48;37.76;99990.83;130179;1269;108696;-75
2022/06/24 13:24:42;;;;;;;3.30;1.60;;;;;;;27.56;37.41;99984.64;130151;1271;108964;-76
2022/06/24 13:27:48;;;;;;;2.20;1.50;;;;;;;27.52;37.53;99987.11;130175;1271;108845;-76
2022/06/24 13:30:54;;;;;;;2.10;1.90;;;;;;;27.47;37.80;99982.16;130188;1270;108964;-75
2022/06/24 13:33:59;;;;;;;2.80;1.80;;;;;;;27.53;37.76;99976.80;130238;1271;108789;-75
2022/06/24 13:37:05;;;;;;;2.20;1.60;;;;;;;27.57;37.37;99974.00;130201;1270;108499;-75
2022/06/24 13:40:11;;;;;;;1.70;1.60;;;;;;;27.65;38.02;99970.29;130178;1269;108723;-75
2022/06/24 13:43:18;;;;;;;1.80;1.60;;;;;;;27.79;37.72;99969.46;130242;1270;108895;-74
2022/06/24 13:46:23;;;;;;;2.90;1.70;;;;;;;27.86;37.57;99973.95;130254;1271;108666;-75
2022/06/24 13:49:28;;;;;;;3.20;1.70;;;;;;;27.92;38.00;99973.39;130195;1270;108730;-74
2022/06/24 13:52:33;;;;;;;4.00;1.70;;;;;;;28.00;37.68;99967.23;130257;1271;109164;-76
2022/06/24 13:55:39;;;;;;;2.60;1.80;;;;;;;28.07;37.69;99963.60;130622;1271;108859;-80
2022/06/24 13:58:45;;;;;;;3.10;1.40;;;;;;;28.18;37.84;99961.77;130434;1270;108736;-75
2022/06/24 14:01:50;;;;;;;2.40;1.60;;;;;;;28.26;37.88;99960.27;130325;1268;108975;-73
2022/06/24 14:04:56;;;;;;;2.40;1.60;;;;;;;28.21;37.30;99961.00;130303;1268;108708;-74
2022/06/24 14:08:01;;;;;;;1.50;1.40;;;;;;;28.11;37.22;99957.23;130305;1268;108730;-73
2022/06/24 14:11:07;;;;;;;2.10;1.50;;;;;;;27.96;36.91;99954.89;130372;1269;108782;-75
2022/06/24 14:14:14;;;;;;;2.20;1.40;;;;;;;27.76;37.22;99959.87;130188;1271;108898;-76
2022/06/24 14:17:19;;;;;;;1.60;1.40;;;;;;;27.66;37.42;99951.42;130240;1271;108768;-76
2022/06/24 14:20:24;;;;;;;1.90;1.40;;;;;;;27.67;36.67;99948.63;130221;1270;108885;-75
2022/06/24 14:26:53;;;;;;;1.60;1.50;;;;;;;27.73;37.16;99946.77;130230;1269;108684;-76
2022/06/24 14:29:58;;;;;;;3.30;1.50;;;;;;;27.80;36.87;99946.44;130221;1269;107724;-78